Hauptseite
METAR-TAF:

METAR-TAF

Flughäfen :

Beirut, Libanon

Breite: 33-49N, Länge: 035-29E, Höhe: 29 m

Beobachtung

Neuester Wetterbericht von vor 26 Minuten, um 18:00 UTC
Wind 1 kt aus unterschiedlichen Richtungen
Temperatur 20°C
Luftfeuchtigkeit 43%
Luftdruck 1014 hPa
Sichtweite 10 km oder mehr
Himmel klar

METAR: OLBA 221800Z VRB01KT 9999 SKC 20/07 Q1014 NOSIG

Zeit: 21:26 (18:26 UTC)

Prognose

Neuester Wetterbericht von vor 2 Stunden und 26 Minuten, um 16:00 UTC
Gültige Prognose vom 22 um 18 UTC bis 23 um 24 UTC
Wind 5 kt aus unterschiedlichen Richtungen
Sichtweite: 8000 m
Leicht bewölkt in der Höhe von 2600 ft
Übergehend zu
vom 23 um 09 UTC bis 23 um 12 UTC
Wind 13 kt aus West
Aufgelockert bewölkt in der Höhe von 2300 ft
Übergehend zu
vom 23 um 21 UTC bis 23 um 24 UTC
Wind 5 kt aus unterschiedlichen Richtungen

TAF: OLBA 221600Z 2218/2324 VRB05KT 8000 FEW026 BECMG 2309/2312 27013KT SCT023 BECMG 2321/2324 VRB05KT

Wetterbeobachtungen und Prognosen von mehr als 4000 Flughäfen (METAR und TAF Bericht).

Die verfügbaren Stationen werden durch gelbe und rote Markierungen auf der Karte dargestellt.

Führen Sie die Maus auf sie, um den Namen der Station zu sehen.

Darauf klicken, um die Beobachtung von Wetterbeobachtungen und Prognosen zu sehen.

Um die Karte zu ändern : klicken Sie auf den grünen Tasten mit einem schwarzen Kreuz Zum Vergrößern, auf den grünen Button mit einem Gedankenstrich zu verkleinern, oder auf die grünen Pfeile für benachbarte Karten.


METAR-TAF: